createdAt,value
2022-09-07T11:30:28.681Z,25.00
2022-09-07T11:31:28.773Z,25.00
2022-09-07T11:32:28.655Z,25.00
2022-09-07T11:33:28.677Z,25.00
2022-09-07T11:36:29.191Z,25.00
2022-09-07T11:37:29.205Z,25.00
2022-09-07T11:38:29.296Z,25.00
2022-09-07T11:39:29.290Z,25.00
2022-09-07T11:40:29.187Z,25.00
2022-09-07T11:41:29.171Z,3.59
2022-09-07T11:42:44.581Z,0.00
2022-09-07T11:43:29.184Z,0.00
2022-09-07T11:45:09.090Z,25.00
2022-09-07T12:36:45.650Z,25.00
2022-09-07T12:37:45.591Z,25.00
2022-09-07T12:38:45.604Z,25.00
2022-09-07T12:39:45.663Z,25.00
2022-09-07T12:40:45.624Z,25.00
2022-09-07T12:41:47.286Z,25.00
2022-09-07T12:42:45.686Z,27.69
2022-09-07T12:43:45.701Z,32.48
2022-09-07T12:44:45.731Z,25.39
2022-09-07T12:45:45.729Z,25.00
2022-09-07T12:46:46.762Z,25.00
2022-09-07T12:47:45.731Z,23.22
2022-09-07T12:48:45.726Z,9.82
2022-09-07T12:49:45.735Z,0.00
2022-09-07T12:50:45.883Z,21.79
2022-09-07T12:52:09.125Z,33.71
2022-09-07T12:52:45.901Z,34.13
2022-09-07T12:53:45.976Z,22.96
2022-09-07T12:54:45.966Z,32.18
2022-09-07T12:56:46.407Z,27.08
2022-09-07T12:57:46.139Z,35.19
2022-09-07T12:58:46.131Z,62.52
2022-09-07T12:59:46.621Z,123.42
2022-09-07T13:00:46.174Z,229.72
2022-09-07T13:01:46.278Z,247.30
2022-09-07T13:02:46.232Z,242.80
2022-09-07T13:03:49.796Z,223.70
2022-09-07T13:04:46.189Z,224.07
2022-09-07T13:05:46.459Z,225.72
2022-09-07T13:07:02.271Z,228.50
2022-09-07T13:07:46.247Z,224.62
2022-09-07T13:08:46.266Z,229.05
2022-09-07T13:09:46.247Z,238.87
2022-09-07T13:10:47.111Z,259.24
2022-09-07T13:11:46.274Z,288.69
2022-09-07T13:12:53.964Z,275.23
2022-09-07T13:14:03.898Z,275.37
2022-09-07T13:14:46.319Z,275.54
2022-09-07T13:15:46.398Z,275.92
2022-09-07T13:17:46.353Z,275.24
2022-09-07T13:18:46.362Z,262.31
2022-09-07T13:19:46.373Z,249.52
2022-09-07T13:20:46.385Z,241.91
2022-09-07T13:21:46.388Z,240.67
2022-09-07T13:22:46.415Z,236.86
2022-09-07T13:23:46.427Z,236.04
2022-09-07T13:24:47.269Z,230.43
2022-09-07T13:25:46.463Z,224.17
2022-09-07T13:26:51.021Z,216.15
2022-09-07T13:27:46.475Z,216.25
2022-09-07T13:28:47.498Z,216.21
2022-09-07T13:29:46.501Z,215.14
2022-09-07T13:30:46.583Z,219.61
2022-09-07T13:31:46.538Z,221.87
2022-09-07T13:33:46.580Z,224.46
2022-09-07T13:34:46.586Z,224.77
2022-09-07T13:35:46.616Z,228.30
2022-09-07T13:36:46.613Z,233.99
2022-09-07T13:37:46.626Z,242.62
2022-09-07T13:38:46.638Z,251.34
2022-09-07T13:39:46.685Z,250.92
2022-09-07T13:40:46.668Z,250.00
2022-09-07T13:41:46.639Z,250.94
2022-09-07T13:42:46.631Z,248.88
2022-09-07T13:43:46.658Z,247.66
2022-09-07T13:44:46.762Z,250.00
2022-09-07T13:45:47.063Z,248.30
2022-09-07T13:46:46.960Z,250.00
2022-09-07T13:47:46.998Z,250.00
2022-09-07T13:48:47.036Z,247.67
2022-09-07T13:49:47.100Z,246.29
2022-09-07T13:50:47.172Z,246.67
2022-09-07T13:51:47.232Z,244.87
2022-09-07T13:52:47.298Z,244.39
2022-09-07T13:53:47.360Z,244.04
2022-09-07T13:54:47.511Z,244.29
